Time;durP1;ratioP1;P1;durP2;ratioP2;P2;SDS_P1;SDS_P2;PMS_P1;PMS_P2;Temp;Humidity;BMP_temperature;BMP_pressure;BME280_temperature;BME280_humidity;BME280_pressure;Samples;Min_cycle;Max_cycle;Signal;HPM_P1;HPM_P2
2021/11/15 00:00:28;;;;;;;;;29.50;29.50;;;;;;;;5091813;28;11447;-82
2021/11/15 00:02:56;;;;;;;;;41.50;37.50;;;;;;;;5085481;28;11533;-81
2021/11/15 00:05:23;;;;;;;;;41.75;35.50;;;;;;;;5095821;28;11551;-77
2021/11/15 00:07:51;;;;;;;;;43.50;38.50;;;;;;;;5083543;28;12286;-76
2021/11/15 00:10:18;;;;;;;;;35.25;23.50;;;;;;;;5082271;28;11585;-75
2021/11/15 00:12:51;;;;;;;;;30.75;26.50;;;;;;;;5083465;28;11677;-74
2021/11/15 00:15:19;;;;;;;;;25.25;21.25;;;;;;;;5080687;28;11663;-76
2021/11/15 00:17:47;;;;;;;;;24.25;24.25;;;;;;;;5084448;28;11572;-78
2021/11/15 00:20:15;;;;;;;;;26.00;21.75;;;;;;;;5082580;28;11679;-74
2021/11/15 00:22:42;;;;;;;;;34.00;27.50;;;;;;;;5087865;28;11605;-77
2021/11/15 00:25:11;;;;;;;;;30.00;30.00;;;;;;;;5081819;28;11705;-86
2021/11/15 00:27:39;;;;;;;;;28.50;28.50;;;;;;;;5086524;28;11573;-76
2021/11/15 00:30:11;;;;;;;;;30.75;26.25;;;;;;;;5084880;28;11689;-82
2021/11/15 00:32:38;;;;;;;;;32.75;26.50;;;;;;;;5088275;28;11561;-86
2021/11/15 00:35:07;;;;;;;;;19.00;19.00;;;;;;;;5083839;28;11561;-76
2021/11/15 00:37:35;;;;;;;;;35.50;35.50;;;;;;;;5078677;28;12319;-85
2021/11/15 00:40:03;;;;;;;;;30.00;30.00;;;;;;;;5092516;28;11571;-80
2021/11/15 00:42:31;;;;;;;;;26.75;22.00;;;;;;;;5087497;28;11733;-85
2021/11/15 00:44:58;;;;;;;;;35.50;30.25;;;;;;;;5087995;28;12360;-84
2021/11/15 00:47:27;;;;;;;;;31.75;28.75;;;;;;;;5091605;28;11568;-74
2021/11/15 00:49:54;;;;;;;;;30.25;27.25;;;;;;;;5084865;28;11565;-75
2021/11/15 00:52:22;;;;;;;;;32.75;30.00;;;;;;;;5094987;28;11655;-76
2021/11/15 00:54:49;;;;;;;;;30.75;27.00;;;;;;;;5084131;28;11581;-74
2021/11/15 00:57:17;;;;;;;;;25.50;24.00;;;;;;;;5090396;28;11535;-73
2021/11/15 00:59:44;;;;;;;;;27.00;24.50;;;;;;;;5082608;28;11652;-80
2021/11/15 01:02:11;;;;;;;;;31.50;28.75;;;;;;;;5091326;27;11544;-77
2021/11/15 01:04:40;;;;;;;;;34.25;27.25;;;;;;;;5088327;28;11604;-77
2021/11/15 01:07:08;;;;;;;;;37.75;33.25;;;;;;;;5086452;28;11578;-80
2021/11/15 01:09:35;;;;;;;;;32.00;32.00;;;;;;;;5084079;28;11589;-79
2021/11/15 01:12:03;;;;;;;;;24.00;24.00;;;;;;;;5091462;28;11607;-74
2021/11/15 01:14:31;;;;;;;;;39.00;27.25;;;;;;;;5089372;28;11554;-73
2021/11/15 01:16:58;;;;;;;;;37.50;32.50;;;;;;;;5096815;28;11591;-75
2021/11/15 01:19:25;;;;;;;;;32.50;30.50;;;;;;;;5090224;28;11678;-78
2021/11/15 01:21:54;;;;;;;;;29.00;25.00;;;;;;;;5089784;28;11724;-85
2021/11/15 01:24:21;;;;;;;;;29.75;28.25;;;;;;;;5082993;28;11552;-81
2021/11/15 01:26:49;;;;;;;;;27.00;26.25;;;;;;;;5091235;28;11589;-83
2021/11/15 01:29:16;;;;;;;;;33.75;32.25;;;;;;;;5095464;28;11588;-80
2021/11/15 01:31:43;;;;;;;;;34.75;31.00;;;;;;;;5091734;28;12435;-80
2021/11/15 01:34:11;;;;;;;;;34.00;27.75;;;;;;;;5091937;28;11579;-73
2021/11/15 01:36:38;;;;;;;;;23.00;23.00;;;;;;;;5097993;28;11562;-76
2021/11/15 01:39:08;;;;;;;;;27.25;27.25;;;;;;;;5091879;28;11575;-79
2021/11/15 01:41:35;;;;;;;;;22.50;21.25;;;;;;;;5082876;28;11546;-81
2021/11/15 01:44:03;;;;;;;;;32.75;28.25;;;;;;;;5090261;28;11515;-76
2021/11/15 01:46:30;;;;;;;;;35.00;30.25;;;;;;;;5092971;28;11611;-81
2021/11/15 01:48:57;;;;;;;;;29.50;27.00;;;;;;;;5095554;28;11683;-81
2021/11/15 01:51:25;;;;;;;;;28.50;28.50;;;;;;;;5085662;28;11597;-75
2021/11/15 01:53:53;;;;;;;;;34.00;31.50;;;;;;;;5087769;28;11607;-75
2021/11/15 01:56:21;;;;;;;;;29.75;28.25;;;;;;;;5085748;28;12355;-75
2021/11/15 01:58:49;;;;;;;;;34.75;27.75;;;;;;;;5097929;28;11606;-74
2021/11/15 02:01:16;;;;;;;;;27.75;27.75;;;;;;;;5086044;28;11547;-81
2021/11/15 02:03:44;;;;;;;;;10.75;5.00;;;;;;;;5091140;28;11549;-83
2021/11/15 02:06:11;;;;;;;;;38.25;33.75;;;;;;;;5088976;28;12369;-80
2021/11/15 02:08:39;;;;;;;;;41.25;34.25;;;;;;;;5088977;28;11570;-83
2021/11/15 02:11:07;;;;;;;;;28.50;25.50;;;;;;;;5098707;28;11561;-83
2021/11/15 02:13:36;;;;;;;;;33.00;31.00;;;;;;;;5085712;28;11711;-82
2021/11/15 02:16:04;;;;;;;;;36.75;33.50;;;;;;;;5088294;28;11112;-79
2021/11/15 02:18:32;;;;;;;;;35.50;32.00;;;;;;;;5085797;28;11716;-83
2021/11/15 02:21:02;;;;;;;;;32.25;29.50;;;;;;;;5095351;28;11617;-82
2021/11/15 02:23:32;;;;;;;;;35.00;35.00;;;;;;;;5093576;28;11074;-79
2021/11/15 02:26:00;;;;;;;;;34.00;30.75;;;;;;;;5087764;28;11561;-75
2021/11/15 02:28:29;;;;;;;;;38.00;33.25;;;;;;;;5098489;28;11587;-81
2021/11/15 02:30:56;;;;;;;;;34.50;31.75;;;;;;;;5093825;27;11532;-85
2021/11/15 02:33:25;;;;;;;;;32.00;27.75;;;;;;;;5086894;28;11603;-78
2021/11/15 02:35:53;;;;;;;;;34.50;32.50;;;;;;;;5086882;28;11551;-80
2021/11/15 02:38:22;;;;;;;;;36.50;33.75;;;;;;;;5085867;28;11567;-81
2021/11/15 02:40:49;;;;;;;;;27.00;26.25;;;;;;;;5078908;28;11559;-82
2021/11/15 02:43:16;;;;;;;;;32.00;29.00;;;;;;;;5085569;28;11606;-76
2021/11/15 02:45:44;;;;;;;;;34.75;32.50;;;;;;;;5085824;28;11557;-76
2021/11/15 02:48:11;;;;;;;;;26.50;23.25;;;;;;;;5085074;28;11575;-76
2021/11/15 02:50:38;;;;;;;;;38.00;35.75;;;;;;;;5090388;28;11571;-81
2021/11/15 02:53:08;;;;;;;;;33.50;32.00;;;;;;;;5093792;28;11725;-84
2021/11/15 02:55:38;;;;;;;;;42.00;34.75;;;;;;;;5088905;28;11657;-80
2021/11/15 02:58:09;;;;;;;;;41.75;37.25;;;;;;;;5083384;28;11537;-76
2021/11/15 03:00:39;;;;;;;;;50.00;41.25;;;;;;;;5086150;28;11662;-79
2021/11/15 03:03:08;;;;;;;;;62.75;47.50;;;;;;;;5094140;28;11582;-78
2021/11/15 03:05:37;;;;;;;;;53.00;43.00;;;;;;;;5088051;28;11710;-84
2021/11/15 03:08:06;;;;;;;;;56.75;45.00;;;;;;;;5087854;28;11719;-76
2021/11/15 03:10:34;;;;;;;;;63.75;49.00;;;;;;;;5095514;28;11609;-78
2021/11/15 03:13:06;;;;;;;;;64.25;51.50;;;;;;;;5088245;28;11652;-80
2021/11/15 03:15:36;;;;;;;;;47.75;41.75;;;;;;;;5084421;28;11611;-79
2021/11/15 03:18:05;;;;;;;;;56.25;47.00;;;;;;;;5089373;28;11686;-81
2021/11/15 03:20:37;;;;;;;;;48.25;39.25;;;;;;;;5090177;28;11588;-77
2021/11/15 03:23:07;;;;;;;;;58.00;47.50;;;;;;;;5099252;28;11718;-78
2021/11/15 03:25:34;;;;;;;;;62.25;49.75;;;;;;;;5090896;28;11546;-77
2021/11/15 03:28:03;;;;;;;;;60.25;46.75;;;;;;;;5084194;28;12448;-82
2021/11/15 03:30:30;;;;;;;;;48.00;44.25;;;;;;;;5079528;28;12280;-79
2021/11/15 03:32:58;;;;;;;;;58.00;46.00;;;;;;;;5084068;28;11524;-77
2021/11/15 03:35:25;;;;;;;;;47.75;39.00;;;;;;;;5089961;28;11590;-74
2021/11/15 03:37:53;;;;;;;;;55.75;43.50;;;;;;;;5093080;28;11582;-77
2021/11/15 03:40:24;;;;;;;;;50.75;42.50;;;;;;;;5086224;28;11611;-76
2021/11/15 03:42:53;;;;;;;;;47.50;41.50;;;;;;;;5088952;28;11557;-83
2021/11/15 03:45:23;;;;;;;;;48.25;42.75;;;;;;;;5082963;28;11713;-77
2021/11/15 03:47:50;;;;;;;;;28.50;20.00;;;;;;;;5086370;28;11588;-73
2021/11/15 03:50:18;;;;;;;;;41.50;38.25;;;;;;;;5082896;28;11666;-75
2021/11/15 03:52:46;;;;;;;;;41.00;39.00;;;;;;;;5095539;28;11608;-78
2021/11/15 03:55:15;;;;;;;;;46.00;38.25;;;;;;;;5085940;28;11544;-74
2021/11/15 03:57:43;;;;;;;;;47.75;40.50;;;;;;;;5089295;28;11595;-78
2021/11/15 04:00:12;;;;;;;;;41.50;39.25;;;;;;;;5088158;28;11667;-77
2021/11/15 04:02:42;;;;;;;;;50.00;42.25;;;;;;;;5092977;28;11732;-74
2021/11/15 04:05:12;;;;;;;;;46.75;34.50;;;;;;;;5081398;28;11575;-79
2021/11/15 04:07:43;;;;;;;;;34.50;34.50;;;;;;;;5085330;28;11671;-80
2021/11/15 04:10:13;;;;;;;;;46.00;38.00;;;;;;;;5091386;28;11666;-82
2021/11/15 04:12:41;;;;;;;;;38.50;38.00;;;;;;;;5090896;28;11601;-74
2021/11/15 04:15:09;;;;;;;;;37.00;37.00;;;;;;;;5089856;28;12341;-75
2021/11/15 04:17:37;;;;;;;;;51.50;39.75;;;;;;;;5075883;28;11612;-75
2021/11/15 04:20:08;;;;;;;;;51.25;42.00;;;;;;;;5097326;28;11580;-77
2021/11/15 04:22:36;;;;;;;;;41.50;38.75;;;;;;;;5086895;28;11707;-75
2021/11/15 04:25:04;;;;;;;;;33.75;33.75;;;;;;;;5085320;28;11606;-80
2021/11/15 04:27:32;;;;;;;;;44.75;35.00;;;;;;;;5084781;28;11591;-80
2021/11/15 04:30:00;;;;;;;;;39.50;35.75;;;;;;;;5084599;28;11592;-78
2021/11/15 04:32:27;;;;;;;;;41.00;36.00;;;;;;;;5082663;28;11625;-78
2021/11/15 04:34:55;;;;;;;;;39.75;34.00;;;;;;;;5085594;28;12353;-76
2021/11/15 04:37:23;;;;;;;;;42.75;35.50;;;;;;;;5081623;28;11568;-76
2021/11/15 04:39:53;;;;;;;;;42.00;37.50;;;;;;;;5083110;28;11583;-74
2021/11/15 04:42:20;;;;;;;;;45.00;39.75;;;;;;;;5085307;28;11538;-79
2021/11/15 04:44:48;;;;;;;;;48.50;42.50;;;;;;;;5092877;28;11665;-80
2021/11/15 04:47:16;;;;;;;;;37.25;34.25;;;;;;;;5085884;28;11543;-73
2021/11/15 04:49:43;;;;;;;;;38.25;38.25;;;;;;;;5083585;28;11584;-73
2021/11/15 04:52:10;;;;;;;;;42.25;38.50;;;;;;;;5080467;28;11620;-73
2021/11/15 04:54:39;;;;;;;;;43.25;39.25;;;;;;;;5081046;28;11565;-76
2021/11/15 04:57:07;;;;;;;;;27.50;24.50;;;;;;;;5081498;28;11553;-73
2021/11/15 04:59:34;;;;;;;;;47.00;40.00;;;;;;;;5093462;28;11566;-76
2021/11/15 05:02:01;;;;;;;;;40.00;36.00;;;;;;;;5085184;27;11532;-79
2021/11/15 05:04:29;;;;;;;;;47.25;41.50;;;;;;;;5082435;28;11563;-80
2021/11/15 05:06:56;;;;;;;;;39.50;37.50;;;;;;;;5081416;28;11600;-72
2021/11/15 05:09:24;;;;;;;;;39.50;36.25;;;;;;;;5091556;28;11588;-76
2021/11/15 05:11:52;;;;;;;;;40.50;36.50;;;;;;;;5078606;28;11613;-76
2021/11/15 05:14:20;;;;;;;;;30.75;29.25;;;;;;;;5088258;28;11630;-78
2021/11/15 05:16:48;;;;;;;;;43.00;38.75;;;;;;;;5083280;28;11615;-77
2021/11/15 05:19:15;;;;;;;;;42.00;34.00;;;;;;;;5080355;28;11596;-82
2021/11/15 05:21:42;;;;;;;;;40.25;38.75;;;;;;;;5083371;28;11583;-81
2021/11/15 05:24:10;;;;;;;;;37.75;33.75;;;;;;;;5088384;28;11795;-82
2021/11/15 05:26:37;;;;;;;;;25.00;23.75;;;;;;;;5082565;28;12022;-74
2021/11/15 05:29:06;;;;;;;;;48.00;39.25;;;;;;;;5095881;28;11632;-76
2021/11/15 05:31:34;;;;;;;;;33.50;32.00;;;;;;;;5103953;27;11647;-78
2021/11/15 05:34:03;;;;;;;;;40.00;33.75;;;;;;;;5098801;28;12283;-80
2021/11/15 05:36:30;;;;;;;;;43.50;39.25;;;;;;;;5080959;28;11609;-80
2021/11/15 05:38:58;;;;;;;;;70.75;55.50;;;;;;;;5082402;28;11555;-76
2021/11/15 05:41:25;;;;;;;;;38.75;34.50;;;;;;;;5082411;28;12406;-77
2021/11/15 05:43:53;;;;;;;;;36.25;29.25;;;;;;;;5084296;28;11590;-74
2021/11/15 05:46:22;;;;;;;;;30.25;25.75;;;;;;;;5080953;28;11558;-74
2021/11/15 05:48:49;;;;;;;;;35.00;35.00;;;;;;;;5085736;28;11549;-77
2021/11/15 05:51:16;;;;;;;;;34.50;34.50;;;;;;;;5077904;28;11578;-83
2021/11/15 05:53:46;;;;;;;;;38.00;36.00;;;;;;;;5081369;28;11556;-76
2021/11/15 05:56:13;;;;;;;;;49.00;40.75;;;;;;;;5079838;28;11636;-75
2021/11/15 05:58:41;;;;;;;;;36.25;30.00;;;;;;;;5082623;28;11581;-79
2021/11/15 06:01:08;;;;;;;;;39.50;35.25;;;;;;;;5085061;28;12289;-80
2021/11/15 06:03:37;;;;;;;;;45.00;35.75;;;;;;;;5084402;28;11593;-81
2021/11/15 06:06:05;;;;;;;;;38.25;34.00;;;;;;;;5083243;28;11737;-77
2021/11/15 06:08:32;;;;;;;;;46.00;36.00;;;;;;;;5085253;28;11606;-82
2021/11/15 06:11:00;;;;;;;;;31.25;27.25;;;;;;;;5085228;28;11596;-78
2021/11/15 06:13:27;;;;;;;;;37.00;27.00;;;;;;;;5086623;28;11682;-74
2021/11/15 06:15:55;;;;;;;;;39.50;33.75;;;;;;;;5083311;28;11592;-80
2021/11/15 06:18:22;;;;;;;;;38.00;36.50;;;;;;;;5083982;28;11541;-79
2021/11/15 06:20:51;;;;;;;;;31.75;30.25;;;;;;;;5082876;28;11568;-79
2021/11/15 06:23:19;;;;;;;;;39.50;35.75;;;;;;;;5087061;28;11549;-78
2021/11/15 06:25:47;;;;;;;;;41.00;35.25;;;;;;;;5086427;28;11726;-77
2021/11/15 06:28:14;;;;;;;;;36.75;29.25;;;;;;;;5083448;28;11600;-86
2021/11/15 06:30:41;;;;;;;;;34.50;32.25;;;;;;;;5085406;28;11568;-86
2021/11/15 06:33:08;;;;;;;;;45.50;39.25;;;;;;;;5084194;28;12344;-81
2021/11/15 06:35:36;;;;;;;;;34.00;28.00;;;;;;;;5086446;28;11627;-81
2021/11/15 06:38:05;;;;;;;;;29.50;27.00;;;;;;;;5085165;28;12402;-82
2021/11/15 06:40:32;;;;;;;;;38.00;32.50;;;;;;;;5083198;28;11551;-82
2021/11/15 06:43:00;;;;;;;;;42.50;32.25;;;;;;;;5103481;28;11562;-75
2021/11/15 06:45:27;;;;;;;;;30.75;30.25;;;;;;;;5085501;28;11521;-81
2021/11/15 06:47:54;;;;;;;;;33.25;30.25;;;;;;;;5079353;28;11651;-79
2021/11/15 06:50:22;;;;;;;;;32.75;28.00;;;;;;;;5074754;28;11551;-77
2021/11/15 06:52:50;;;;;;;;;29.75;27.50;;;;;;;;5086768;28;11523;-83
2021/11/15 06:55:22;;;;;;;;;37.75;34.25;;;;;;;;5097063;28;11510;-83
2021/11/15 06:57:50;;;;;;;;;39.75;37.25;;;;;;;;5085048;28;11695;-81
2021/11/15 07:00:21;;;;;;;;;30.25;29.50;;;;;;;;5077998;28;11580;-76
2021/11/15 07:02:49;;;;;;;;;39.50;35.00;;;;;;;;5073450;28;11644;-77
2021/11/15 07:05:16;;;;;;;;;31.00;31.00;;;;;;;;5074929;28;11545;-76
2021/11/15 07:07:44;;;;;;;;;37.00;31.75;;;;;;;;5074129;28;11701;-75
2021/11/15 07:10:13;;;;;;;;;28.75;26.00;;;;;;;;5074768;28;11700;-76
2021/11/15 07:12:42;;;;;;;;;40.75;39.75;;;;;;;;5081775;28;11620;-77
2021/11/15 07:15:10;;;;;;;;;38.75;30.50;;;;;;;;5089986;28;11705;-75
2021/11/15 07:17:38;;;;;;;;;34.25;25.25;;;;;;;;5094184;28;12438;-76
2021/11/15 07:20:06;;;;;;;;;38.25;31.25;;;;;;;;5105538;28;11637;-77
2021/11/15 07:22:34;;;;;;;;;41.25;36.50;;;;;;;;5096984;28;11519;-84
2021/11/15 07:25:01;;;;;;;;;36.75;33.75;;;;;;;;5081742;28;11544;-82
2021/11/15 07:27:29;;;;;;;;;39.00;33.50;;;;;;;;5084333;28;11489;-78
2021/11/15 07:29:57;;;;;;;;;34.50;30.25;;;;;;;;5084504;28;11527;-77
2021/11/15 07:32:25;;;;;;;;;40.25;31.50;;;;;;;;5086238;28;12301;-76
2021/11/15 07:34:53;;;;;;;;;41.75;29.75;;;;;;;;5082625;28;11526;-76
2021/11/15 07:37:20;;;;;;;;;29.50;27.25;;;;;;;;5082942;28;11491;-78
2021/11/15 07:39:47;;;;;;;;;30.25;30.00;;;;;;;;5081165;28;11499;-79
2021/11/15 07:42:17;;;;;;;;;37.25;35.75;;;;;;;;5087641;28;11484;-77
2021/11/15 07:44:45;;;;;;;;;40.00;37.25;;;;;;;;5076898;28;11530;-78
2021/11/15 07:47:15;;;;;;;;;49.25;39.25;;;;;;;;5089063;28;12280;-78
2021/11/15 07:49:44;;;;;;;;;36.50;33.00;;;;;;;;5080182;28;11514;-78
2021/11/15 07:52:11;;;;;;;;;40.50;31.75;;;;;;;;5082066;28;11502;-80
2021/11/15 07:54:39;;;;;;;;;35.50;26.00;;;;;;;;5079791;28;12289;-75
2021/11/15 07:57:08;;;;;;;;;37.00;30.50;;;;;;;;5102835;28;11527;-74
2021/11/15 07:59:35;;;;;;;;;38.25;33.50;;;;;;;;5082387;28;11504;-74
2021/11/15 08:02:03;;;;;;;;;34.50;28.25;;;;;;;;5106549;27;11494;-75
2021/11/15 08:04:32;;;;;;;;;30.50;27.75;;;;;;;;5116002;27;11629;-75
2021/11/15 08:07:00;;;;;;;;;33.50;29.50;;;;;;;;5080570;28;11514;-76
2021/11/15 08:09:27;;;;;;;;;20.75;20.75;;;;;;;;5080196;28;11547;-74
2021/11/15 08:12:00;;;;;;;;;33.00;30.50;;;;;;;;5081565;28;11539;-78
2021/11/15 08:14:28;;;;;;;;;27.50;25.75;;;;;;;;5086792;28;11562;-76
2021/11/15 08:16:56;;;;;;;;;31.25;28.50;;;;;;;;5084242;28;11536;-77
2021/11/15 08:19:23;;;;;;;;;25.00;21.50;;;;;;;;5080676;28;11463;-79
2021/11/15 08:21:51;;;;;;;;;23.50;20.25;;;;;;;;5095563;28;12303;-77
2021/11/15 08:24:57;;;;;;;;;31.50;30.25;;;;;;;;5082074;28;11622;-76
2021/11/15 08:27:24;;;;;;;;;38.50;35.50;;;;;;;;5080598;28;11508;-77
2021/11/15 08:29:51;;;;;;;;;42.50;36.00;;;;;;;;5083987;28;11516;-75
2021/11/15 08:32:24;;;;;;;;;40.25;33.00;;;;;;;;5080847;28;12298;-75
2021/11/15 08:34:52;;;;;;;;;39.00;32.25;;;;;;;;5071521;28;11554;-75
2021/11/15 08:37:21;;;;;;;;;42.50;33.50;;;;;;;;5072911;28;11558;-76
2021/11/15 08:39:48;;;;;;;;;33.00;28.50;;;;;;;;5078579;28;11533;-76
2021/11/15 08:42:16;;;;;;;;;53.75;38.00;;;;;;;;5083034;28;11631;-75
2021/11/15 08:44:52;;;;;;;;;42.75;39.75;;;;;;;;5078205;28;11587;-75
2021/11/15 08:47:19;;;;;;;;;58.75;44.25;;;;;;;;5075171;28;11522;-76
2021/11/15 08:49:46;;;;;;;;;43.25;37.00;;;;;;;;5083665;28;11512;-76
2021/11/15 08:52:14;;;;;;;;;48.00;41.75;;;;;;;;5087305;28;11508;-76
2021/11/15 08:54:47;;;;;;;;;42.50;38.25;;;;;;;;5080680;28;11563;-76
2021/11/15 08:57:15;;;;;;;;;38.75;35.50;;;;;;;;5080727;28;11604;-76
2021/11/15 08:59:44;;;;;;;;;46.75;37.25;;;;;;;;5077835;28;11518;-80
2021/11/15 09:02:11;;;;;;;;;49.25;41.50;;;;;;;;5077225;28;11583;-75
2021/11/15 09:04:38;;;;;;;;;42.00;34.50;;;;;;;;5072118;28;11508;-75
2021/11/15 09:07:07;;;;;;;;;45.00;35.50;;;;;;;;5077134;28;11551;-74
2021/11/15 09:09:34;;;;;;;;;37.00;32.75;;;;;;;;5078761;28;11999;-75
2021/11/15 09:12:06;;;;;;;;;42.00;38.75;;;;;;;;5087001;28;11535;-75
2021/11/15 09:14:33;;;;;;;;;35.25;32.50;;;;;;;;5089921;28;11503;-75
2021/11/15 09:17:01;;;;;;;;;45.75;37.25;;;;;;;;5085678;28;11527;-75
2021/11/15 09:19:28;;;;;;;;;46.75;40.25;;;;;;;;5070647;28;11509;-74
2021/11/15 09:21:56;;;;;;;;;44.50;38.00;;;;;;;;5072278;28;11578;-75
2021/11/15 09:24:24;;;;;;;;;50.00;42.00;;;;;;;;5086014;28;11555;-75
2021/11/15 09:26:53;;;;;;;;;49.50;39.75;;;;;;;;5089533;28;11509;-75
2021/11/15 09:29:23;;;;;;;;;42.00;37.00;;;;;;;;5083529;28;11502;-75
2021/11/15 09:31:50;;;;;;;;;44.50;38.25;;;;;;;;5082223;28;12283;-75
2021/11/15 09:34:17;;;;;;;;;50.75;44.50;;;;;;;;5084595;28;11654;-74
2021/11/15 09:36:45;;;;;;;;;50.00;42.50;;;;;;;;5080690;28;11495;-74
2021/11/15 09:39:13;;;;;;;;;48.75;38.75;;;;;;;;5084910;28;11534;-74
2021/11/15 09:41:44;;;;;;;;;49.75;39.50;;;;;;;;5087015;28;11485;-74
2021/11/15 09:44:13;;;;;;;;;56.25;44.25;;;;;;;;5080951;28;11543;-74
2021/11/15 09:46:43;;;;;;;;;44.75;36.50;;;;;;;;5099375;28;12506;-75
2021/11/15 09:49:11;;;;;;;;;49.25;42.25;;;;;;;;5093244;28;11496;-74
2021/11/15 09:51:40;;;;;;;;;50.50;43.50;;;;;;;;5084343;28;11500;-75
2021/11/15 09:54:07;;;;;;;;;45.00;40.00;;;;;;;;5092317;28;11608;-75
2021/11/15 09:56:37;;;;;;;;;39.75;38.00;;;;;;;;5084230;28;11502;-75
2021/11/15 09:59:05;;;;;;;;;43.50;40.00;;;;;;;;5087409;28;11487;-75
2021/11/15 10:01:33;;;;;;;;;52.25;39.00;;;;;;;;5078039;28;11521;-75
2021/11/15 10:04:02;;;;;;;;;42.75;39.50;;;;;;;;5080864;28;11639;-74
2021/11/15 10:06:29;;;;;;;;;46.50;38.00;;;;;;;;5084125;28;12636;-75
2021/11/15 10:09:00;;;;;;;;;45.25;36.00;;;;;;;;5075521;28;11536;-75
2021/11/15 10:11:28;;;;;;;;;40.75;34.00;;;;;;;;5082183;28;11545;-74
2021/11/15 10:13:56;;;;;;;;;51.75;40.50;;;;;;;;5086854;28;11496;-74
2021/11/15 10:16:25;;;;;;;;;33.50;31.25;;;;;;;;5081789;28;11581;-75
2021/11/15 10:18:56;;;;;;;;;49.00;39.25;;;;;;;;5083303;28;11566;-75
2021/11/15 10:21:28;;;;;;;;;45.00;40.25;;;;;;;;5100620;28;11498;-74
2021/11/15 10:23:59;;;;;;;;;40.75;30.25;;;;;;;;5105888;28;11504;-75
2021/11/15 10:26:30;;;;;;;;;46.00;42.25;;;;;;;;5072548;28;11648;-74
2021/11/15 10:29:01;;;;;;;;;34.50;31.00;;;;;;;;5085704;28;11595;-75
2021/11/15 10:31:48;;;;;;;;;38.75;34.25;;;;;;;;5077533;28;11574;-74
2021/11/15 10:34:22;;;;;;;;;46.75;38.00;;;;;;;;5094853;28;11505;-74
2021/11/15 10:37:03;;;;;;;;;42.25;39.25;;;;;;;;5090383;28;11520;-74
2021/11/15 10:39:38;;;;;;;;;40.00;37.25;;;;;;;;5089115;28;11546;-74
2021/11/15 10:42:13;;;;;;;;;40.75;38.00;;;;;;;;5097392;28;11507;-75
2021/11/15 10:44:46;;;;;;;;;42.75;33.75;;;;;;;;5096228;27;11510;-74
2021/11/15 10:47:15;;;;;;;;;44.75;38.25;;;;;;;;5085668;28;11511;-74
2021/11/15 10:49:43;;;;;;;;;36.00;34.25;;;;;;;;5086476;28;11611;-74
2021/11/15 10:52:15;;;;;;;;;32.00;29.25;;;;;;;;5087053;28;11633;-74
2021/11/15 10:54:58;;;;;;;;;41.75;33.50;;;;;;;;5085123;28;12414;-74
2021/11/15 10:57:38;;;;;;;;;31.75;29.50;;;;;;;;5090504;28;11515;-74
2021/11/15 11:00:40;;;;;;;;;30.50;24.75;;;;;;;;5102655;27;11662;-74
2021/11/15 11:03:18;;;;;;;;;34.50;32.75;;;;;;;;5018886;28;11552;-75
2021/11/15 11:05:47;;;;;;;;;28.75;26.50;;;;;;;;5076690;28;11312;-74
2021/11/15 11:08:20;;;;;;;;;28.75;27.25;;;;;;;;5091263;28;11267;-75
2021/11/15 11:10:54;;;;;;;;;33.50;32.00;;;;;;;;5087717;28;12262;-74
2021/11/15 11:13:25;;;;;;;;;30.75;26.50;;;;;;;;5085258;28;11469;-74
2021/11/15 11:15:56;;;;;;;;;24.75;23.25;;;;;;;;5093302;28;11489;-75
2021/11/15 11:18:34;;;;;;;;;27.50;26.25;;;;;;;;5086509;28;11501;-74
2021/11/15 11:24:32;;;;;;;;;34.25;31.00;;;;;;;;5099370;28;12579;-77
2021/11/15 11:27:02;;;;;;;;;35.75;30.75;;;;;;;;5094221;28;11517;-75
2021/11/15 11:29:33;;;;;;;;;38.25;34.00;;;;;;;;5082596;28;11659;-74
2021/11/15 11:32:05;;;;;;;;;34.75;29.50;;;;;;;;5072924;28;11690;-74
2021/11/15 11:34:34;;;;;;;;;35.25;34.00;;;;;;;;5076725;28;11652;-75
2021/11/15 11:37:07;;;;;;;;;33.25;28.00;;;;;;;;5082525;28;11545;-75
2021/11/15 11:39:36;;;;;;;;;31.75;30.50;;;;;;;;5076443;28;11645;-75
2021/11/15 11:42:06;;;;;;;;;43.50;36.25;;;;;;;;5080418;28;11514;-77
2021/11/15 11:44:39;;;;;;;;;35.00;32.50;;;;;;;;5079979;28;11565;-77
2021/11/15 11:47:09;;;;;;;;;47.25;40.50;;;;;;;;5082170;28;11620;-75
2021/11/15 11:49:37;;;;;;;;;41.25;37.00;;;;;;;;5087181;28;11524;-74
2021/11/15 11:52:07;;;;;;;;;40.50;35.25;;;;;;;;5085081;28;11496;-73
2021/11/15 11:54:38;;;;;;;;;44.25;38.75;;;;;;;;5086272;28;12220;-73
2021/11/15 11:57:11;;;;;;;;;35.25;33.50;;;;;;;;5081570;28;12335;-75
2021/11/15 11:59:42;;;;;;;;;44.00;35.00;;;;;;;;5074019;28;11660;-75
2021/11/15 12:02:12;;;;;;;;;41.75;37.50;;;;;;;;5079551;28;11655;-74
2021/11/15 12:04:47;;;;;;;;;47.75;37.75;;;;;;;;5086182;28;11584;-76
2021/11/15 12:07:25;;;;;;;;;49.75;40.75;;;;;;;;5080240;28;11508;-74
2021/11/15 12:09:54;;;;;;;;;50.25;40.25;;;;;;;;5077970;28;11518;-73
2021/11/15 12:12:22;;;;;;;;;46.25;41.50;;;;;;;;5082058;28;11534;-74
2021/11/15 12:14:49;;;;;;;;;48.50;42.00;;;;;;;;5079200;28;11662;-76
2021/11/15 12:17:18;;;;;;;;;36.50;34.25;;;;;;;;5089292;28;12170;-75
2021/11/15 12:20:23;;;;;;;;;48.00;40.00;;;;;;;;5082881;28;11512;-76
2021/11/15 12:22:56;;;;;;;;;51.00;42.75;;;;;;;;5075244;28;11513;-78
2021/11/15 12:25:27;;;;;;;;;46.25;39.25;;;;;;;;5095401;28;11546;-74
2021/11/15 12:27:59;;;;;;;;;52.00;38.75;;;;;;;;5078816;28;11552;-75
2021/11/15 12:30:29;;;;;;;;;47.50;40.50;;;;;;;;5082278;28;11472;-77
2021/11/15 12:33:22;;;;;;;;;45.25;40.50;;;;;;;;5079533;28;11533;-72
2021/11/15 12:36:02;;;;;;;;;65.00;48.75;;;;;;;;5084512;28;11507;-77
2021/11/15 12:38:45;;;;;;;;;48.25;42.00;;;;;;;;5083023;28;12416;-73
2021/11/15 12:41:33;;;;;;;;;58.50;44.50;;;;;;;;5077044;28;11618;-76
2021/11/15 12:44:28;;;;;;;;;47.00;42.25;;;;;;;;5080221;28;11547;-76
2021/11/15 12:47:00;;;;;;;;;39.25;38.25;;;;;;;;5064237;28;12275;-76
2021/11/15 12:49:35;;;;;;;;;58.75;44.00;;;;;;;;5074297;28;11539;-77
2021/11/15 12:52:24;;;;;;;;;44.75;41.50;;;;;;;;5078465;28;12504;-77
2021/11/15 12:54:54;;;;;;;;;63.00;52.00;;;;;;;;5079856;28;11535;-76
2021/11/15 12:57:45;;;;;;;;;70.25;52.50;;;;;;;;5094604;28;11669;-77
2021/11/15 13:00:16;;;;;;;;;71.75;56.50;;;;;;;;5089450;28;11625;-76
2021/11/15 13:02:56;;;;;;;;;35.25;32.00;;;;;;;;5080057;28;12443;-77
2021/11/15 13:05:26;;;;;;;;;62.25;47.75;;;;;;;;5086548;28;11507;-77
2021/11/15 13:07:55;;;;;;;;;52.25;43.50;;;;;;;;5084523;28;11670;-77
2021/11/15 13:10:24;;;;;;;;;50.50;42.50;;;;;;;;5075818;28;11716;-77
2021/11/15 13:12:53;;;;;;;;;47.75;39.00;;;;;;;;5093025;28;13043;-76
2021/11/15 13:15:20;;;;;;;;;66.00;53.25;;;;;;;;5089443;28;11609;-77
2021/11/15 13:17:48;;;;;;;;;51.50;43.00;;;;;;;;5087309;28;11717;-77
2021/11/15 13:20:16;;;;;;;;;53.25;42.00;;;;;;;;5103505;28;11514;-75
2021/11/15 13:22:46;;;;;;;;;51.50;39.75;;;;;;;;5114377;27;11656;-75
2021/11/15 13:25:14;;;;;;;;;53.00;42.75;;;;;;;;5114658;27;11549;-75
2021/11/15 13:27:42;;;;;;;;;51.25;43.00;;;;;;;;5107853;28;11497;-75
2021/11/15 13:30:14;;;;;;;;;53.25;43.50;;;;;;;;5106590;27;11603;-75
2021/11/15 13:32:46;;;;;;;;;50.50;44.50;;;;;;;;5108250;28;11503;-74
2021/11/15 13:35:13;;;;;;;;;47.00;40.00;;;;;;;;5106316;28;11639;-75
2021/11/15 13:37:40;;;;;;;;;55.25;43.50;;;;;;;;5107861;28;11504;-75
2021/11/15 13:40:09;;;;;;;;;47.50;42.75;;;;;;;;5103960;28;12274;-75
2021/11/15 13:42:36;;;;;;;;;40.75;38.25;;;;;;;;5107352;28;11533;-74
2021/11/15 13:45:05;;;;;;;;;55.00;48.00;;;;;;;;5092643;28;11690;-75
2021/11/15 13:47:34;;;;;;;;;52.75;41.25;;;;;;;;5086522;28;12969;-75
2021/11/15 13:50:02;;;;;;;;;58.75;43.75;;;;;;;;5065108;28;11549;-75
2021/11/15 13:52:29;;;;;;;;;42.75;38.25;;;;;;;;5106182;28;11541;-75
2021/11/15 13:54:59;;;;;;;;;44.25;39.75;;;;;;;;5098900;28;11738;-75
2021/11/15 13:57:28;;;;;;;;;45.00;41.50;;;;;;;;5089042;28;11584;-75
2021/11/15 13:59:55;;;;;;;;;43.25;40.25;;;;;;;;5087015;28;11531;-75
2021/11/15 14:02:23;;;;;;;;;40.00;35.25;;;;;;;;5087403;28;11476;-75
2021/11/15 14:04:52;;;;;;;;;58.75;46.00;;;;;;;;5106754;28;11604;-75
2021/11/15 14:07:20;;;;;;;;;40.50;39.25;;;;;;;;5099097;28;11666;-75
2021/11/15 14:09:48;;;;;;;;;55.00;44.00;;;;;;;;5103691;28;11638;-75
2021/11/15 14:12:16;;;;;;;;;57.00;47.50;;;;;;;;5091220;28;11606;-75
2021/11/15 14:14:43;;;;;;;;;56.75;46.50;;;;;;;;5101326;28;11543;-75
2021/11/15 14:17:11;;;;;;;;;55.75;44.75;;;;;;;;5089517;28;11550;-74
2021/11/15 14:19:39;;;;;;;;;46.75;42.50;;;;;;;;5086078;28;11506;-75
2021/11/15 14:22:08;;;;;;;;;50.50;41.50;;;;;;;;5087074;28;11530;-75
2021/11/15 14:24:37;;;;;;;;;41.25;36.75;;;;;;;;5100346;28;11518;-75
2021/11/15 14:27:05;;;;;;;;;47.00;42.25;;;;;;;;5105686;28;12343;-75
2021/11/15 14:29:33;;;;;;;;;55.25;45.00;;;;;;;;5103971;28;12563;-75
2021/11/15 14:32:01;;;;;;;;;46.50;38.00;;;;;;;;5105137;27;11527;-75